Tjumen, Russia
Current Conditions -  °F | °C
As of 3:30 AM on Thursday 23 Oct 2014 (Local Time) from USTR Reporting Station
Blowing Snow Blowing Snow  
Wind Chill:   Ceiling: 800
Heat Index: 21°   Visibility: 4mi
Dew Point: 19°   Wind: 16mph
Humidity: 93%   Direction: 80°E
Pressure: 29.62"   Gusts: 22mph
Location:  57.15°N, 65.53°E
Report Text: USTR 222230Z 08007G10MPS 6000 -SHSN BLSN BKN008 OVC015CBM06/M07 Q1003 TEMPO 0600 +SHSN FZRA VV005 RMK QFE744/0992 1245035703////99
Loading
Personal Weather Stations






























Interactive Weather Map
Tropical Storm Tracking
New forecast layout! Learn more

10-Day Weather Forecast

Advertisements
Track Severe Weather on mobile